sensor_id;sensor_type;location;lat;lon;timestamp;pressure;altitude;pressure_sealevel;temperature;humidity
74163;BME280;62515;52.758;5.076;2024-02-26T00:00:01;100211.97;;;7.35;100.00
74163;BME280;62515;52.758;5.076;2024-02-26T00:02:31;100223.09;;;7.65;100.00
74163;BME280;62515;52.758;5.076;2024-02-26T00:04:58;100234.00;;;7.48;100.00
74163;BME280;62515;52.758;5.076;2024-02-26T00:07:25;100233.91;;;7.50;100.00
74163;BME280;62515;52.758;5.076;2024-02-26T00:09:52;100235.69;;;7.49;100.00
74163;BME280;62515;52.758;5.076;2024-02-26T00:12:18;100233.78;;;7.51;100.00
74163;BME280;62515;52.758;5.076;2024-02-26T00:14:45;100233.47;;;7.56;100.00
74163;BME280;62515;52.758;5.076;2024-02-26T00:17:13;100234.84;;;7.74;100.00
74163;BME280;62515;52.758;5.076;2024-02-26T00:19:41;100217.81;;;7.65;100.00
74163;BME280;62515;52.758;5.076;2024-02-26T00:22:08;100215.38;;;7.50;100.00
74163;BME280;62515;52.758;5.076;2024-02-26T00:24:35;100226.19;;;7.59;100.00
74163;BME280;62515;52.758;5.076;2024-02-26T00:27:02;100245.34;;;7.50;100.00
74163;BME280;62515;52.758;5.076;2024-02-26T00:29:29;100241.72;;;7.51;100.00
74163;BME280;62515;52.758;5.076;2024-02-26T00:31:56;100245.00;;;7.55;100.00
74163;BME280;62515;52.758;5.076;2024-02-26T00:34:23;100255.31;;;7.59;100.00
74163;BME280;62515;52.758;5.076;2024-02-26T00:36:51;100255.63;;;7.80;100.00
74163;BME280;62515;52.758;5.076;2024-02-26T00:39:18;100255.00;;;7.64;100.00
74163;BME280;62515;52.758;5.076;2024-02-26T00:41:45;100265.38;;;7.67;100.00
74163;BME280;62515;52.758;5.076;2024-02-26T00:44:12;100248.63;;;7.41;100.00
74163;BME280;62515;52.758;5.076;2024-02-26T00:46:39;100268.34;;;7.62;100.00
74163;BME280;62515;52.758;5.076;2024-02-26T00:49:06;100278.47;;;7.43;100.00
74163;BME280;62515;52.758;5.076;2024-02-26T00:51:33;100272.47;;;7.54;100.00
74163;BME280;62515;52.758;5.076;2024-02-26T00:54:01;100276.50;;;7.72;100.00
74163;BME280;62515;52.758;5.076;2024-02-26T00:56:29;100273.41;;;7.40;100.00
74163;BME280;62515;52.758;5.076;2024-02-26T00:58:55;100277.91;;;7.38;100.00
74163;BME280;62515;52.758;5.076;2024-02-26T01:01:22;100267.03;;;7.30;100.00
74163;BME280;62515;52.758;5.076;2024-02-26T01:03:49;100262.38;;;7.33;100.00
74163;BME280;62515;52.758;5.076;2024-02-26T01:06:17;100285.03;;;7.25;100.00
74163;BME280;62515;52.758;5.076;2024-02-26T01:08:44;100278.56;;;7.42;100.00
74163;BME280;62515;52.758;5.076;2024-02-26T01:11:12;100275.63;;;7.46;100.00
74163;BME280;62515;52.758;5.076;2024-02-26T01:13:39;100290.97;;;7.41;100.00
74163;BME280;62515;52.758;5.076;2024-02-26T01:16:06;100284.84;;;7.53;100.00
74163;BME280;62515;52.758;5.076;2024-02-26T01:18:32;100284.84;;;7.53;100.00
74163;BME280;62515;52.758;5.076;2024-02-26T01:21:00;100290.78;;;7.57;100.00
74163;BME280;62515;52.758;5.076;2024-02-26T01:23:27;100291.50;;;8.47;100.00
74163;BME280;62515;52.758;5.076;2024-02-26T01:25:53;100293.91;;;6.97;100.00
74163;BME280;62515;52.758;5.076;2024-02-26T01:28:22;100290.38;;;7.11;100.00
74163;BME280;62515;52.758;5.076;2024-02-26T01:30:49;100300.69;;;6.74;100.00
74163;BME280;62515;52.758;5.076;2024-02-26T01:33:16;100296.47;;;6.72;100.00
74163;BME280;62515;52.758;5.076;2024-02-26T01:35:43;100304.69;;;8.11;100.00
74163;BME280;62515;52.758;5.076;2024-02-26T01:38:10;100301.34;;;8.58;100.00
74163;BME280;62515;52.758;5.076;2024-02-26T01:40:37;100302.75;;;8.87;100.00
74163;BME280;62515;52.758;5.076;2024-02-26T01:43:04;100306.19;;;6.71;100.00
74163;BME280;62515;52.758;5.076;2024-02-26T01:45:32;100305.78;;;6.77;100.00
74163;BME280;62515;52.758;5.076;2024-02-26T01:47:59;100306.50;;;6.53;100.00
74163;BME280;62515;52.758;5.076;2024-02-26T01:50:27;100293.94;;;6.56;100.00
74163;BME280;62515;52.758;5.076;2024-02-26T01:52:54;100289.34;;;6.99;100.00
74163;BME280;62515;52.758;5.076;2024-02-26T01:55:23;100302.09;;;6.80;100.00
74163;BME280;62515;52.758;5.076;2024-02-26T01:57:51;100297.78;;;6.65;100.00
74163;BME280;62515;52.758;5.076;2024-02-26T02:00:20;100293.63;;;6.61;100.00
74163;BME280;62515;52.758;5.076;2024-02-26T02:02:49;100293.34;;;6.65;100.00
74163;BME280;62515;52.758;5.076;2024-02-26T02:05:17;100298.59;;;6.53;100.00
74163;BME280;62515;52.758;5.076;2024-02-26T02:07:46;100287.44;;;6.48;100.00
74163;BME280;62515;52.758;5.076;2024-02-26T02:10:14;100301.88;;;6.83;100.00
74163;BME280;62515;52.758;5.076;2024-02-26T02:12:41;100308.00;;;6.57;100.00
74163;BME280;62515;52.758;5.076;2024-02-26T02:15:08;100307.09;;;6.44;100.00
74163;BME280;62515;52.758;5.076;2024-02-26T02:17:35;100313.94;;;6.60;100.00
74163;BME280;62515;52.758;5.076;2024-02-26T02:20:04;100311.09;;;6.63;100.00
74163;BME280;62515;52.758;5.076;2024-02-26T02:22:35;100320.28;;;6.58;100.00
74163;BME280;62515;52.758;5.076;2024-02-26T02:25:02;100316.97;;;6.54;100.00
74163;BME280;62515;52.758;5.076;2024-02-26T02:27:29;100308.59;;;6.48;100.00
74163;BME280;62515;52.758;5.076;2024-02-26T02:29:56;100304.91;;;7.82;100.00
74163;BME280;62515;52.758;5.076;2024-02-26T02:32:24;100310.72;;;8.38;100.00
74163;BME280;62515;52.758;5.076;2024-02-26T02:34:51;100304.78;;;6.93;100.00
74163;BME280;62515;52.758;5.076;2024-02-26T02:37:19;100315.84;;;6.58;100.00
74163;BME280;62515;52.758;5.076;2024-02-26T02:39:47;100320.38;;;7.88;100.00
74163;BME280;62515;52.758;5.076;2024-02-26T02:42:15;100328.25;;;6.84;100.00
74163;BME280;62515;52.758;5.076;2024-02-26T02:44:41;100326.50;;;8.65;100.00
74163;BME280;62515;52.758;5.076;2024-02-26T02:47:08;100327.47;;;6.56;100.00
74163;BME280;62515;52.758;5.076;2024-02-26T02:49:35;100339.84;;;6.41;100.00
74163;BME280;62515;52.758;5.076;2024-02-26T02:52:03;100335.78;;;6.50;100.00
74163;BME280;62515;52.758;5.076;2024-02-26T02:54:30;100340.84;;;6.67;100.00
74163;BME280;62515;52.758;5.076;2024-02-26T02:56:59;100344.09;;;6.44;100.00
74163;BME280;62515;52.758;5.076;2024-02-26T02:59:25;100344.47;;;6.38;100.00
74163;BME280;62515;52.758;5.076;2024-02-26T03:01:52;100349.59;;;6.81;100.00
74163;BME280;62515;52.758;5.076;2024-02-26T03:04:19;100349.28;;;6.45;100.00
74163;BME280;62515;52.758;5.076;2024-02-26T03:06:46;100350.84;;;6.76;100.00
74163;BME280;62515;52.758;5.076;2024-02-26T03:09:13;100349.16;;;6.75;100.00
74163;BME280;62515;52.758;5.076;2024-02-26T03:11:40;100350.94;;;6.74;100.00
74163;BME280;62515;52.758;5.076;2024-02-26T03:14:09;100353.50;;;7.03;100.00
74163;BME280;62515;52.758;5.076;2024-02-26T03:16:36;100349.59;;;6.81;100.00
74163;BME280;62515;52.758;5.076;2024-02-26T03:19:03;100351.84;;;6.88;100.00
74163;BME280;62515;52.758;5.076;2024-02-26T03:21:30;100356.97;;;6.76;100.00
74163;BME280;62515;52.758;5.076;2024-02-26T03:23:57;100367.69;;;7.02;100.00
74163;BME280;62515;52.758;5.076;2024-02-26T03:26:24;100361.84;;;6.97;100.00
74163;BME280;62515;52.758;5.076;2024-02-26T03:28:51;100362.03;;;6.94;100.00
74163;BME280;62515;52.758;5.076;2024-02-26T03:31:19;100363.50;;;7.12;100.00
74163;BME280;62515;52.758;5.076;2024-02-26T03:33:46;100366.94;;;7.00;100.00
74163;BME280;62515;52.758;5.076;2024-02-26T03:36:13;100370.91;;;6.93;100.00
74163;BME280;62515;52.758;5.076;2024-02-26T03:38:40;100377.91;;;6.94;100.00
74163;BME280;62515;52.758;5.076;2024-02-26T03:41:07;100381.00;;;7.00;100.00
74163;BME280;62515;52.758;5.076;2024-02-26T03:43:34;100372.47;;;6.82;100.00
74163;BME280;62515;52.758;5.076;2024-02-26T03:46:01;100368.09;;;6.96;100.00
74163;BME280;62515;52.758;5.076;2024-02-26T03:48:29;100379.00;;;7.18;100.00
74163;BME280;62515;52.758;5.076;2024-02-26T03:50:56;100387.16;;;7.01;100.00
74163;BME280;62515;52.758;5.076;2024-02-26T03:53:23;100390.00;;;6.98;100.00
74163;BME280;62515;52.758;5.076;2024-02-26T03:55:49;100377.56;;;6.86;100.00
74163;BME280;62515;52.758;5.076;2024-02-26T03:58:16;100401.00;;;6.21;100.00
74163;BME280;62515;52.758;5.076;2024-02-26T04:00:44;100412.03;;;6.27;100.00
74163;BME280;62515;52.758;5.076;2024-02-26T04:03:10;100409.19;;;6.16;100.00
74163;BME280;62515;52.758;5.076;2024-02-26T04:05:39;100400.13;;;7.71;100.00
74163;BME280;62515;52.758;5.076;2024-02-26T04:08:06;100403.16;;;6.28;100.00
74163;BME280;62515;52.758;5.076;2024-02-26T04:10:33;100408.47;;;6.14;100.00
74163;BME280;62515;52.758;5.076;2024-02-26T04:13:00;100410.16;;;6.29;100.00
74163;BME280;62515;52.758;5.076;2024-02-26T04:15:27;100429.09;;;6.22;100.00
74163;BME280;62515;52.758;5.076;2024-02-26T04:17:54;100412.09;;;6.97;100.00
74163;BME280;62515;52.758;5.076;2024-02-26T04:20:21;100405.66;;;7.15;100.00
74163;BME280;62515;52.758;5.076;2024-02-26T04:22:50;100425.47;;;7.49;100.00
74163;BME280;62515;52.758;5.076;2024-02-26T04:25:16;100410.69;;;7.59;100.00
74163;BME280;62515;52.758;5.076;2024-02-26T04:27:43;100428.88;;;7.90;100.00
74163;BME280;62515;52.758;5.076;2024-02-26T04:30:11;100437.72;;;6.40;100.00
74163;BME280;62515;52.758;5.076;2024-02-26T04:32:38;100435.50;;;6.18;100.00
74163;BME280;62515;52.758;5.076;2024-02-26T04:35:05;100449.81;;;6.58;100.00
74163;BME280;62515;52.758;5.076;2024-02-26T04:37:33;100443.47;;;6.32;100.00
74163;BME280;62515;52.758;5.076;2024-02-26T04:40:01;100450.66;;;6.44;100.00
74163;BME280;62515;52.758;5.076;2024-02-26T04:42:28;100456.31;;;6.24;100.00
74163;BME280;62515;52.758;5.076;2024-02-26T04:44:55;100442.06;;;7.65;100.00
74163;BME280;62515;52.758;5.076;2024-02-26T04:47:22;100456.91;;;6.43;100.00
74163;BME280;62515;52.758;5.076;2024-02-26T04:49:49;100457.25;;;6.23;100.00
74163;BME280;62515;52.758;5.076;2024-02-26T04:52:16;100472.72;;;6.29;100.00
74163;BME280;62515;52.758;5.076;2024-02-26T04:54:43;100479.63;;;6.31;100.00
74163;BME280;62515;52.758;5.076;2024-02-26T04:57:11;100479.38;;;6.50;100.00
74163;BME280;62515;52.758;5.076;2024-02-26T04:59:38;100486.16;;;6.40;100.00
74163;BME280;62515;52.758;5.076;2024-02-26T05:02:05;100485.97;;;6.43;100.00
74163;BME280;62515;52.758;5.076;2024-02-26T05:04:32;100457.25;;;6.23;100.00
74163;BME280;62515;52.758;5.076;2024-02-26T05:06:59;100474.25;;;6.33;100.00
74163;BME280;62515;52.758;5.076;2024-02-26T05:09:26;100457.63;;;6.17;100.00
74163;BME280;62515;52.758;5.076;2024-02-26T05:11:53;100493.00;;;6.28;100.00
74163;BME280;62515;52.758;5.076;2024-02-26T05:14:22;100489.31;;;6.31;100.00
74163;BME280;62515;52.758;5.076;2024-02-26T05:16:49;100493.19;;;6.25;100.00
74163;BME280;62515;52.758;5.076;2024-02-26T05:19:15;100506.16;;;6.30;100.00
74163;BME280;62515;52.758;5.076;2024-02-26T05:21:43;100498.97;;;6.32;100.00
74163;BME280;62515;52.758;5.076;2024-02-26T05:24:10;100501.53;;;6.34;100.00
74163;BME280;62515;52.758;5.076;2024-02-26T05:26:37;100505.28;;;6.29;100.00
74163;BME280;62515;52.758;5.076;2024-02-26T05:29:04;100512.03;;;6.49;100.00
74163;BME280;62515;52.758;5.076;2024-02-26T05:31:32;100498.34;;;6.43;100.00
74163;BME280;62515;52.758;5.076;2024-02-26T05:33:59;100515.75;;;6.31;100.00
74163;BME280;62515;52.758;5.076;2024-02-26T05:36:26;100508.00;;;6.28;100.00
74163;BME280;62515;52.758;5.076;2024-02-26T05:38:53;100482.06;;;6.20;100.00
74163;BME280;62515;52.758;5.076;2024-02-26T05:41:20;100506.34;;;6.41;100.00
74163;BME280;62515;52.758;5.076;2024-02-26T05:43:47;100492.09;;;6.29;100.00
74163;BME280;62515;52.758;5.076;2024-02-26T05:46:16;100514.09;;;6.44;100.00
74163;BME280;62515;52.758;5.076;2024-02-26T05:48:44;100526.38;;;6.45;100.00
74163;BME280;62515;52.758;5.076;2024-02-26T05:51:11;100527.97;;;6.34;100.00
74163;BME280;62515;52.758;5.076;2024-02-26T05:53:38;100533.41;;;6.74;100.00
74163;BME280;62515;52.758;5.076;2024-02-26T05:56:06;100540.03;;;6.38;100.00
74163;BME280;62515;52.758;5.076;2024-02-26T05:58:33;100542.03;;;6.48;100.00
74163;BME280;62515;52.758;5.076;2024-02-26T06:01:00;100541.59;;;6.56;100.00
74163;BME280;62515;52.758;5.076;2024-02-26T06:03:27;100544.56;;;6.36;100.00
74163;BME280;62515;52.758;5.076;2024-02-26T06:05:55;100541.25;;;6.90;100.00
74163;BME280;62515;52.758;5.076;2024-02-26T06:08:22;100547.50;;;6.45;100.00
74163;BME280;62515;52.758;5.076;2024-02-26T06:10:49;100549.78;;;6.37;100.00
74163;BME280;62515;52.758;5.076;2024-02-26T06:13:16;100568.41;;;6.50;100.00
74163;BME280;62515;52.758;5.076;2024-02-26T06:15:43;100560.91;;;6.42;100.00
74163;BME280;62515;52.758;5.076;2024-02-26T06:18:10;100572.25;;;6.44;100.00
74163;BME280;62515;52.758;5.076;2024-02-26T06:20:37;100566.28;;;6.41;100.00
74163;BME280;62515;52.758;5.076;2024-02-26T06:23:05;100577.56;;;6.58;100.00
74163;BME280;62515;52.758;5.076;2024-02-26T06:25:32;100592.88;;;6.53;100.00
74163;BME280;62515;52.758;5.076;2024-02-26T06:27:58;100566.38;;;6.39;100.00
74163;BME280;62515;52.758;5.076;2024-02-26T06:30:25;100588.31;;;6.25;100.00
74163;BME280;62515;52.758;5.076;2024-02-26T06:32:52;100580.59;;;6.52;100.00
74163;BME280;62515;52.758;5.076;2024-02-26T06:35:19;100582.69;;;6.31;100.00
74163;BME280;62515;52.758;5.076;2024-02-26T06:37:46;100580.28;;;6.43;100.00
74163;BME280;62515;52.758;5.076;2024-02-26T06:40:15;100587.59;;;6.53;100.00
74163;BME280;62515;52.758;5.076;2024-02-26T06:42:41;100572.56;;;6.24;100.00
74163;BME280;62515;52.758;5.076;2024-02-26T06:45:09;100608.56;;;6.56;100.00
74163;BME280;62515;52.758;5.076;2024-02-26T06:47:36;100600.88;;;6.52;100.00
74163;BME280;62515;52.758;5.076;2024-02-26T06:50:03;100616.00;;;6.50;100.00
74163;BME280;62515;52.758;5.076;2024-02-26T06:52:30;100615.88;;;6.51;100.00
74163;BME280;62515;52.758;5.076;2024-02-26T06:54:57;100611.19;;;6.56;100.00
74163;BME280;62515;52.758;5.076;2024-02-26T06:57:25;100608.06;;;6.50;100.00
74163;BME280;62515;52.758;5.076;2024-02-26T06:59:52;100635.25;;;6.52;100.00
74163;BME280;62515;52.758;5.076;2024-02-26T07:02:19;100624.28;;;6.88;100.00
74163;BME280;62515;52.758;5.076;2024-02-26T07:04:46;100635.13;;;7.41;100.00
74163;BME280;62515;52.758;5.076;2024-02-26T07:07:13;100641.53;;;7.51;100.00
74163;BME280;62515;52.758;5.076;2024-02-26T07:09:41;100644.75;;;7.42;100.00
74163;BME280;62515;52.758;5.076;2024-02-26T07:12:09;100642.69;;;7.47;100.00
74163;BME280;62515;52.758;5.076;2024-02-26T07:14:37;100637.28;;;8.04;100.00
74163;BME280;62515;52.758;5.076;2024-02-26T07:17:04;100645.22;;;6.76;100.00
74163;BME280;62515;52.758;5.076;2024-02-26T07:19:31;100650.41;;;7.64;100.00
74163;BME280;62515;52.758;5.076;2024-02-26T07:21:58;100654.47;;;6.40;100.00
74163;BME280;62515;52.758;5.076;2024-02-26T07:24:25;100655.53;;;6.51;100.00
74163;BME280;62515;52.758;5.076;2024-02-26T07:26:52;100660.59;;;7.00;100.00
74163;BME280;62515;52.758;5.076;2024-02-26T07:29:18;100661.94;;;7.07;100.00
74163;BME280;62515;52.758;5.076;2024-02-26T07:31:47;100655.88;;;7.19;100.00
74163;BME280;62515;52.758;5.076;2024-02-26T07:34:14;100664.13;;;7.14;100.00
74163;BME280;62515;52.758;5.076;2024-02-26T07:36:41;100655.88;;;6.45;100.00
74163;BME280;62515;52.758;5.076;2024-02-26T07:39:08;100650.03;;;6.40;100.00
74163;BME280;62515;52.758;5.076;2024-02-26T07:41:35;100666.66;;;6.72;100.00
74163;BME280;62515;52.758;5.076;2024-02-26T07:44:02;100657.13;;;6.69;100.00
74163;BME280;62515;52.758;5.076;2024-02-26T07:46:28;100635.34;;;6.50;100.00
74163;BME280;62515;52.758;5.076;2024-02-26T07:48:57;100659.47;;;6.60;100.00
74163;BME280;62515;52.758;5.076;2024-02-26T07:51:24;100665.34;;;6.49;100.00
74163;BME280;62515;52.758;5.076;2024-02-26T07:53:50;100682.03;;;6.65;100.00
74163;BME280;62515;52.758;5.076;2024-02-26T07:56:17;100684.38;;;6.86;100.00
74163;BME280;62515;52.758;5.076;2024-02-26T07:58:44;100680.75;;;6.72;100.00
74163;BME280;62515;52.758;5.076;2024-02-26T08:01:13;100694.84;;;6.87;100.00
74163;BME280;62515;52.758;5.076;2024-02-26T08:03:40;100684.06;;;6.60;100.00
74163;BME280;62515;52.758;5.076;2024-02-26T08:06:09;100688.63;;;6.88;100.00
74163;BME280;62515;52.758;5.076;2024-02-26T08:08:36;100683.53;;;7.57;100.00
74163;BME280;62515;52.758;5.076;2024-02-26T08:11:03;100692.31;;;6.86;100.00
74163;BME280;62515;52.758;5.076;2024-02-26T08:13:30;100692.69;;;6.79;100.00
74163;BME280;62515;52.758;5.076;2024-02-26T08:15:57;100708.41;;;7.41;100.00
74163;BME280;62515;52.758;5.076;2024-02-26T08:18:24;100701.84;;;6.58;100.00
74163;BME280;62515;52.758;5.076;2024-02-26T08:20:51;100733.28;;;8.09;100.00
74163;BME280;62515;52.758;5.076;2024-02-26T08:23:19;100735.28;;;7.19;100.00
74163;BME280;62515;52.758;5.076;2024-02-26T08:25:46;100738.28;;;7.13;100.00
74163;BME280;62515;52.758;5.076;2024-02-26T08:28:13;100748.22;;;6.79;100.00
74163;BME280;62515;52.758;5.076;2024-02-26T08:30:40;100744.78;;;6.77;100.00
74163;BME280;62515;52.758;5.076;2024-02-26T08:33:07;100728.84;;;6.79;100.00
74163;BME280;62515;52.758;5.076;2024-02-26T08:35:34;100744.03;;;6.75;100.00
74163;BME280;62515;52.758;5.076;2024-02-26T08:38:00;100731.84;;;6.73;100.00
74163;BME280;62515;52.758;5.076;2024-02-26T08:40:29;100737.00;;;6.90;100.00
74163;BME280;62515;52.758;5.076;2024-02-26T08:42:56;100731.16;;;6.99;100.00
74163;BME280;62515;52.758;5.076;2024-02-26T08:45:23;100727.38;;;6.89;100.00
74163;BME280;62515;52.758;5.076;2024-02-26T08:47:52;100740.69;;;6.88;100.00
74163;BME280;62515;52.758;5.076;2024-02-26T08:50:19;100742.31;;;6.74;100.00
74163;BME280;62515;52.758;5.076;2024-02-26T08:52:46;100738.81;;;6.74;100.00
74163;BME280;62515;52.758;5.076;2024-02-26T08:55:13;100743.25;;;6.89;100.00
74163;BME280;62515;52.758;5.076;2024-02-26T08:57:41;100742.72;;;7.12;100.00
74163;BME280;62515;52.758;5.076;2024-02-26T09:00:08;100739.03;;;7.01;100.00
74163;BME280;62515;52.758;5.076;2024-02-26T09:02:36;100745.25;;;7.00;100.00
74163;BME280;62515;52.758;5.076;2024-02-26T09:05:03;100758.28;;;7.03;100.00
74163;BME280;62515;52.758;5.076;2024-02-26T09:07:29;100757.06;;;6.94;100.00
74163;BME280;62515;52.758;5.076;2024-02-26T09:09:56;100759.25;;;7.02;100.00
74163;BME280;62515;52.758;5.076;2024-02-26T09:12:23;100762.94;;;6.83;100.00
74163;BME280;62515;52.758;5.076;2024-02-26T09:14:52;100787.16;;;7.07;100.00
74163;BME280;62515;52.758;5.076;2024-02-26T09:17:18;100776.69;;;7.20;100.00
74163;BME280;62515;52.758;5.076;2024-02-26T09:19:45;100788.94;;;7.07;100.00
74163;BME280;62515;52.758;5.076;2024-02-26T09:22:12;100792.38;;;6.93;100.00
74163;BME280;62515;52.758;5.076;2024-02-26T09:24:44;100795.16;;;7.06;100.00
74163;BME280;62515;52.758;5.076;2024-02-26T09:27:10;100794.88;;;7.26;100.00
74163;BME280;62515;52.758;5.076;2024-02-26T09:29:37;100804.03;;;7.64;100.00
74163;BME280;62515;52.758;5.076;2024-02-26T09:32:06;100813.69;;;7.65;100.00
74163;BME280;62515;52.758;5.076;2024-02-26T09:34:33;100817.03;;;7.39;100.00
74163;BME280;62515;52.758;5.076;2024-02-26T09:37:00;100818.56;;;7.43;100.00
74163;BME280;62515;52.758;5.076;2024-02-26T09:39:38;100811.28;;;7.47;100.00
74163;BME280;62515;52.758;5.076;2024-02-26T09:42:05;100820.22;;;7.74;100.00
74163;BME280;62515;52.758;5.076;2024-02-26T09:44:33;100828.47;;;7.69;100.00
74163;BME280;62515;52.758;5.076;2024-02-26T09:47:02;100825.69;;;7.71;100.00
74163;BME280;62515;52.758;5.076;2024-02-26T09:49:30;100843.28;;;8.30;100.00
74163;BME280;62515;52.758;5.076;2024-02-26T09:51:57;100841.75;;;7.83;100.00
74163;BME280;62515;52.758;5.076;2024-02-26T09:54:26;100841.16;;;8.07;100.00
74163;BME280;62515;52.758;5.076;2024-02-26T09:56:55;100833.72;;;7.99;100.00
74163;BME280;62515;52.758;5.076;2024-02-26T09:59:37;100808.69;;;7.75;100.00
74163;BME280;62515;52.758;5.076;2024-02-26T10:02:09;100851.25;;;8.30;100.00
74163;BME280;62515;52.758;5.076;2024-02-26T10:04:39;100860.59;;;7.93;100.00
74163;BME280;62515;52.758;5.076;2024-02-26T10:07:10;100863.34;;;9.30;100.00
74163;BME280;62515;52.758;5.076;2024-02-26T10:09:37;100865.41;;;8.01;100.00
74163;BME280;62515;52.758;5.076;2024-02-26T10:12:05;100873.63;;;8.10;100.00
74163;BME280;62515;52.758;5.076;2024-02-26T10:14:32;100860.88;;;8.17;100.00
74163;BME280;62515;52.758;5.076;2024-02-26T10:16:59;100872.50;;;9.26;100.00
74163;BME280;62515;52.758;5.076;2024-02-26T10:19:26;100878.44;;;8.48;100.00
74163;BME280;62515;52.758;5.076;2024-02-26T10:21:57;100882.47;;;8.25;100.00
74163;BME280;62515;52.758;5.076;2024-02-26T10:24:25;100888.34;;;8.72;100.00
74163;BME280;62515;52.758;5.076;2024-02-26T10:26:52;100872.03;;;9.19;100.00
74163;BME280;62515;52.758;5.076;2024-02-26T10:29:19;100870.53;;;8.18;100.00
74163;BME280;62515;52.758;5.076;2024-02-26T10:31:46;100900.69;;;8.73;100.00
74163;BME280;62515;52.758;5.076;2024-02-26T10:34:14;100897.47;;;8.54;100.00
74163;BME280;62515;52.758;5.076;2024-02-26T10:36:42;100906.66;;;8.34;100.00
74163;BME280;62515;52.758;5.076;2024-02-26T10:39:20;100912.22;;;9.54;100.00
74163;BME280;62515;52.758;5.076;2024-02-26T10:41:49;100912.06;;;8.61;100.00
74163;BME280;62515;52.758;5.076;2024-02-26T10:44:16;100909.13;;;8.52;100.00
74163;BME280;62515;52.758;5.076;2024-02-26T10:46:46;100916.97;;;8.53;100.00
74163;BME280;62515;52.758;5.076;2024-02-26T10:49:14;100913.44;;;9.36;100.00
74163;BME280;62515;52.758;5.076;2024-02-26T10:51:44;100922.75;;;8.74;100.00
74163;BME280;62515;52.758;5.076;2024-02-26T10:54:15;100931.09;;;8.54;100.00
74163;BME280;62515;52.758;5.076;2024-02-26T10:56:46;100930.81;;;9.93;100.00
74163;BME280;62515;52.758;5.076;2024-02-26T10:59:14;100936.69;;;8.63;100.00
74163;BME280;62515;52.758;5.076;2024-02-26T11:01:42;100937.84;;;8.45;100.00
74163;BME280;62515;52.758;5.076;2024-02-26T11:04:10;100945.50;;;8.64;100.00
74163;BME280;62515;52.758;5.076;2024-02-26T11:06:38;100940.66;;;8.56;100.00
74163;BME280;62515;52.758;5.076;2024-02-26T11:09:06;100944.09;;;8.58;100.00
74163;BME280;62515;52.758;5.076;2024-02-26T11:11:34;100945.19;;;8.68;100.00
74163;BME280;62515;52.758;5.076;2024-02-26T11:14:03;100952.09;;;8.99;100.00
74163;BME280;62515;52.758;5.076;2024-02-26T11:16:30;100929.88;;;8.45;100.00
74163;BME280;62515;52.758;5.076;2024-02-26T11:18:57;100942.00;;;8.63;100.00
74163;BME280;62515;52.758;5.076;2024-02-26T11:21:25;100951.16;;;9.68;100.00
74163;BME280;62515;52.758;5.076;2024-02-26T11:23:51;100949.72;;;9.09;100.00
74163;BME280;62515;52.758;5.076;2024-02-26T11:26:19;100930.31;;;10.01;100.00
74163;BME280;62515;52.758;5.076;2024-02-26T11:28:47;100943.31;;;10.18;100.00
74163;BME280;62515;52.758;5.076;2024-02-26T11:31:16;100955.13;;;9.48;100.00
74163;BME280;62515;52.758;5.076;2024-02-26T11:33:43;100951.00;;;9.83;100.00
74163;BME280;62515;52.758;5.076;2024-02-26T11:36:11;100972.03;;;9.86;100.00
74163;BME280;62515;52.758;5.076;2024-02-26T11:38:39;100958.66;;;8.51;100.00
74163;BME280;62515;52.758;5.076;2024-02-26T11:41:06;100956.19;;;8.62;100.00
74163;BME280;62515;52.758;5.076;2024-02-26T11:43:50;100968.50;;;8.91;100.00
74163;BME280;62515;52.758;5.076;2024-02-26T11:46:28;100945.69;;;8.61;100.00
74163;BME280;62515;52.758;5.076;2024-02-26T11:48:57;100957.41;;;8.28;100.00
74163;BME280;62515;52.758;5.076;2024-02-26T11:51:25;100964.25;;;8.75;100.00
74163;BME280;62515;52.758;5.076;2024-02-26T11:53:52;100965.69;;;8.80;100.00
74163;BME280;62515;52.758;5.076;2024-02-26T11:56:21;100956.41;;;8.87;100.00
74163;BME280;62515;52.758;5.076;2024-02-26T11:58:48;100963.78;;;8.54;100.00
74163;BME280;62515;52.758;5.076;2024-02-26T12:01:39;100974.88;;;9.03;100.00
74163;BME280;62515;52.758;5.076;2024-02-26T12:04:06;100972.88;;;8.92;100.00
74163;BME280;62515;52.758;5.076;2024-02-26T12:06:41;100981.78;;;8.77;100.00
74163;BME280;62515;52.758;5.076;2024-02-26T12:09:09;100972.63;;;8.25;100.00
74163;BME280;62515;52.758;5.076;2024-02-26T12:11:37;100984.34;;;8.65;100.00
74163;BME280;62515;52.758;5.076;2024-02-26T12:14:05;100977.41;;;8.48;100.00
74163;BME280;62515;52.758;5.076;2024-02-26T12:16:39;100977.97;;;8.53;100.00
74163;BME280;62515;52.758;5.076;2024-02-26T12:19:07;100992.94;;;8.68;100.00
74163;BME280;62515;52.758;5.076;2024-02-26T12:21:35;100979.06;;;8.65;100.00
74163;BME280;62515;52.758;5.076;2024-02-26T12:24:13;100994.66;;;8.69;100.00
74163;BME280;62515;52.758;5.076;2024-02-26T12:26:41;100997.03;;;8.60;100.00
74163;BME280;62515;52.758;5.076;2024-02-26T12:29:08;101004.53;;;8.67;100.00
74163;BME280;62515;52.758;5.076;2024-02-26T12:31:35;101008.50;;;8.88;100.00
74163;BME280;62515;52.758;5.076;2024-02-26T12:34:04;101007.94;;;8.98;100.00
74163;BME280;62515;52.758;5.076;2024-02-26T12:36:32;101003.03;;;8.77;100.00
74163;BME280;62515;52.758;5.076;2024-02-26T12:39:00;101008.28;;;8.49;100.00
74163;BME280;62515;52.758;5.076;2024-02-26T12:41:27;101017.31;;;8.89;100.00
74163;BME280;62515;52.758;5.076;2024-02-26T12:43:55;101026.22;;;9.02;100.00
74163;BME280;62515;52.758;5.076;2024-02-26T12:46:22;101028.53;;;8.94;100.00
74163;BME280;62515;52.758;5.076;2024-02-26T12:48:48;101016.00;;;8.68;100.00
74163;BME280;62515;52.758;5.076;2024-02-26T12:51:17;101039.59;;;9.01;100.00